Time;durP1;ratioP1;P1;durP2;ratioP2;P2;SDS_P1;SDS_P2;PMS_P1;PMS_P2;Temp;Humidity;BMP_temperature;BMP_pressure;BME280_temperature;BME280_humidity;BME280_pressure;Samples;Min_cycle;Max_cycle;Signal;HPM_P1;HPM_P2
2021/08/03 00:01:31;;;;;;;2.03;1.65;;;;;;;22.71;52.98;101537.78;5006071;28;20026;-73
2021/08/03 00:04:09;;;;;;;2.53;1.88;;;;;;;22.71;53.23;101540.44;5003532;28;20042;-72
2021/08/03 00:06:47;;;;;;;2.13;1.80;;;;;;;22.71;53.24;101532.47;5004463;28;20042;-73
2021/08/03 00:09:15;;;;;;;2.72;1.90;;;;;;;22.72;53.25;101534.13;5001270;28;20034;-73
2021/08/03 00:11:42;;;;;;;1.83;1.67;;;;;;;22.72;53.18;101531.47;5002798;28;20042;-73
2021/08/03 00:14:08;;;;;;;2.70;1.75;;;;;;;22.68;53.38;101533.66;5001724;28;20076;-72
2021/08/03 00:16:37;;;;;;;2.03;1.67;;;;;;;22.71;53.30;101529.81;5004893;28;20046;-73
2021/08/03 00:19:03;;;;;;;3.03;1.80;;;;;;;22.70;53.16;101525.50;5003116;28;20034;-72
2021/08/03 00:21:29;;;;;;;2.42;1.80;;;;;;;22.68;53.10;101533.66;5005772;28;20470;-73
2021/08/03 00:23:55;;;;;;;1.95;1.83;;;;;;;22.70;53.27;101530.81;5003414;28;20037;-73
2021/08/03 00:26:21;;;;;;;2.47;1.85;;;;;;;22.69;53.11;101527.34;5006272;28;20034;-73
2021/08/03 00:28:49;;;;;;;1.98;1.75;;;;;;;22.69;53.14;101527.34;5005818;28;20395;-73
2021/08/03 00:31:18;;;;;;;2.55;1.63;;;;;;;22.68;53.02;101532.84;5004743;28;20038;-73
2021/08/03 00:33:45;;;;;;;2.30;1.40;;;;;;;22.68;53.21;101527.53;5002076;28;20117;-73
2021/08/03 00:36:12;;;;;;;3.22;1.70;;;;;;;22.66;53.26;101524.22;5002477;28;20048;-73
2021/08/03 00:38:37;;;;;;;1.60;1.50;;;;;;;22.68;53.07;101524.88;5004750;28;20092;-73
2021/08/03 00:41:09;;;;;;;1.75;1.42;;;;;;;22.67;53.17;101528.53;5004948;28;20403;-73
2021/08/03 00:43:35;;;;;;;1.90;1.73;;;;;;;22.67;52.88;101525.88;5003288;28;20036;-73
2021/08/03 00:46:01;;;;;;;2.55;1.73;;;;;;;22.65;53.23;101525.22;5003911;28;21896;-73
2021/08/03 00:48:27;;;;;;;2.78;2.00;;;;;;;22.65;53.37;101525.22;5003044;28;20042;-72
2021/08/03 00:50:52;;;;;;;1.67;1.52;;;;;;;22.64;53.40;101524.41;5003817;28;20049;-72
2021/08/03 00:53:18;;;;;;;2.38;1.83;;;;;;;22.65;53.27;101525.22;5005399;28;20046;-73
2021/08/03 00:55:44;;;;;;;2.05;1.70;;;;;;;22.64;53.43;101521.75;5019878;28;20034;-72
2021/08/03 00:58:12;;;;;;;1.50;1.40;;;;;;;22.64;53.15;101519.09;5019558;28;20077;-73
2021/08/03 01:00:38;;;;;;;2.95;2.00;;;;;;;22.65;52.92;101525.22;5003028;28;20045;-73
2021/08/03 01:03:06;;;;;;;1.90;1.70;;;;;;;22.64;53.03;101521.75;5006863;28;20034;-72
2021/08/03 01:05:47;;;;;;;2.33;1.80;;;;;;;22.61;53.20;101520.25;5005594;28;20050;-73
2021/08/03 01:08:39;;;;;;;1.98;1.73;;;;;;;22.65;53.03;101514.63;5004169;28;20095;-73
2021/08/03 01:11:10;;;;;;;2.03;1.83;;;;;;;22.61;53.03;101504.34;5003125;28;20045;-73
2021/08/03 01:13:54;;;;;;;1.85;1.70;;;;;;;22.64;53.06;101510.31;5003418;28;20030;-72
2021/08/03 01:16:44;;;;;;;1.98;1.70;;;;;;;22.63;53.01;101508.66;5003360;28;20034;-72
2021/08/03 01:19:22;;;;;;;1.70;1.60;;;;;;;22.63;53.02;101511.31;5003401;28;20723;-73
2021/08/03 01:22:21;;;;;;;1.80;1.70;;;;;;;22.62;53.08;101507.81;5002669;28;20515;-73
2021/08/03 01:25:02;;;;;;;2.10;1.80;;;;;;;22.60;53.43;101504.53;5004491;28;20120;-73
2021/08/03 01:27:47;;;;;;;2.03;1.73;;;;;;;22.59;53.31;101501.03;5018150;28;20487;-73
2021/08/03 01:30:13;;;;;;;2.40;2.00;;;;;;;22.59;53.05;101509.00;5005672;28;20116;-73
2021/08/03 01:32:43;;;;;;;1.85;1.75;;;;;;;22.60;53.19;101513.31;5005958;28;20551;-73
2021/08/03 01:35:10;;;;;;;1.90;1.70;;;;;;;22.59;53.15;101510.84;5003034;28;20037;-73
2021/08/03 01:37:37;;;;;;;2.03;1.67;;;;;;;22.57;53.36;101511.03;5007546;28;20034;-73
2021/08/03 01:40:12;;;;;;;1.90;1.77;;;;;;;22.55;53.40;101505.06;5003337;28;20060;-73
2021/08/03 01:42:42;;;;;;;1.63;1.52;;;;;;;22.56;53.53;101509.38;5021064;28;20034;-73
2021/08/03 01:45:10;;;;;;;2.42;1.80;;;;;;;22.58;53.34;101514.50;5007646;28;20032;-73
2021/08/03 01:47:37;;;;;;;1.95;1.70;;;;;;;22.56;53.40;101504.06;5008175;28;20057;-73
2021/08/03 01:50:04;;;;;;;1.70;1.60;;;;;;;22.56;53.13;101505.91;5005482;28;20360;-73
2021/08/03 01:52:33;;;;;;;2.00;1.75;;;;;;;22.56;53.02;101506.72;5007328;28;20037;-72
2021/08/03 01:55:03;;;;;;;2.03;1.83;;;;;;;22.56;53.32;101509.38;5006790;28;20491;-73
2021/08/03 01:57:39;;;;;;;2.08;1.70;;;;;;;22.56;53.37;101511.22;5008090;28;20048;-73
2021/08/03 02:00:10;;;;;;;1.67;1.58;;;;;;;22.55;53.30;101507.72;5005703;28;20093;-73
2021/08/03 02:02:42;;;;;;;1.83;1.70;;;;;;;22.55;53.33;101505.06;5007437;28;20054;-73
2021/08/03 02:05:10;;;;;;;1.80;1.55;;;;;;;22.54;53.00;101506.09;4988059;28;20045;-72
2021/08/03 02:07:40;;;;;;;;;;;;;;;22.55;53.42;101498.94;5004641;28;20434;-73
2021/08/03 02:10:09;;;;;;;;;;;;;;;22.52;53.39;101502.78;5020845;28;19925;-73
2021/08/03 02:12:36;;;;;;;1.88;1.60;;;;;;;22.53;52.98;101501.78;5006260;28;19936;-73
2021/08/03 02:15:04;;;;;;;1.77;1.67;;;;;;;22.51;53.28;101506.44;5007313;28;20038;-73
2021/08/03 02:17:31;;;;;;;1.70;1.60;;;;;;;22.51;53.06;101517.06;5005919;28;20033;-73
2021/08/03 02:20:08;;;;;;;2.40;2.00;;;;;;;22.52;53.04;101518.72;5004141;28;20042;-73
2021/08/03 02:22:39;;;;;;;1.73;1.63;;;;;;;22.53;53.45;101514.22;5021857;28;20038;-73
2021/08/03 02:25:13;;;;;;;2.08;1.77;;;;;;;22.50;53.39;101518.06;5020646;28;20788;-72
2021/08/03 02:27:39;;;;;;;1.90;1.70;;;;;;;22.49;53.58;101520.91;5010524;28;20041;-73
2021/08/03 02:30:06;;;;;;;2.08;1.70;;;;;;;22.51;53.21;101517.06;5005522;28;20092;-73
2021/08/03 02:32:46;;;;;;;2.17;1.80;;;;;;;22.49;53.25;101523.56;5006550;28;20033;-73
2021/08/03 02:35:19;;;;;;;2.05;1.85;;;;;;;22.50;53.14;101522.56;5004843;28;20058;-73
2021/08/03 02:37:54;;;;;;;2.30;1.90;;;;;;;22.49;53.21;101519.06;5006161;28;20045;-73
2021/08/03 02:40:21;;;;;;;1.70;1.60;;;;;;;22.49;53.24;101521.72;5005751;28;20049;-72
2021/08/03 02:43:01;;;;;;;1.75;1.65;;;;;;;22.46;53.35;101516.78;5006951;28;20034;-72
2021/08/03 02:45:28;;;;;;;2.10;1.88;;;;;;;22.48;53.11;101524.56;5006768;28;20029;-72
2021/08/03 02:47:58;;;;;;;2.28;1.92;;;;;;;22.46;53.16;101516.78;5007698;28;20492;-72
2021/08/03 02:50:27;;;;;;;1.70;1.60;;;;;;;22.45;53.47;101516.97;5004631;28;20499;-72
2021/08/03 02:52:55;;;;;;;2.08;1.70;;;;;;;22.46;53.16;101518.63;5006694;28;20384;-72
2021/08/03 02:55:31;;;;;;;2.08;1.88;;;;;;;22.44;53.11;101524.09;5001028;28;20095;-72
2021/08/03 02:58:03;;;;;;;2.13;1.92;;;;;;;22.41;53.26;101513.84;5007135;28;20145;-73
2021/08/03 03:00:33;;;;;;;1.98;1.88;;;;;;;22.43;53.33;101517.13;5004198;28;20037;-72
2021/08/03 03:03:04;;;;;;;2.63;1.88;;;;;;;22.42;53.41;101512.81;5001732;28;20025;-72
2021/08/03 03:05:33;;;;;;;1.65;1.55;;;;;;;22.42;53.10;101520.78;5006771;28;20061;-73
2021/08/03 03:08:06;;;;;;;2.17;1.80;;;;;;;22.42;53.35;101506.69;5005772;28;20042;-73
2021/08/03 03:10:41;;;;;;;1.75;1.63;;;;;;;22.43;53.35;101511.81;5004499;28;20057;-73
2021/08/03 03:13:34;;;;;;;1.92;1.60;;;;;;;22.44;53.35;101515.28;5004816;28;20057;-73
2021/08/03 03:16:02;;;;;;;2.22;1.98;;;;;;;22.38;53.28;101514.19;5006608;28;20053;-72
2021/08/03 03:18:28;;;;;;;2.20;1.92;;;;;;;22.40;53.24;101517.50;5006686;28;20080;-72
2021/08/03 03:20:54;;;;;;;1.88;1.77;;;;;;;22.39;53.38;101513.19;5006092;28;20221;-72
2021/08/03 03:23:23;;;;;;;1.98;1.77;;;;;;;22.40;53.43;101521.97;5006745;28;20160;-73
2021/08/03 03:25:51;;;;;;;3.08;1.83;;;;;;;22.39;53.21;101515.03;5020036;28;20423;-72
2021/08/03 03:28:23;;;;;;;1.90;1.80;;;;;;;22.40;53.36;101514.84;5016830;28;20033;-74
2021/08/03 03:30:51;;;;;;;1.90;1.70;;;;;;;22.38;53.21;101511.53;5002557;28;20064;-72
2021/08/03 03:33:17;;;;;;;2.03;1.83;;;;;;;22.40;53.23;101514.00;5007061;28;20523;-73
2021/08/03 03:35:45;;;;;;;2.08;1.88;;;;;;;22.39;53.15;101523.81;5004772;28;20392;-73
2021/08/03 03:38:12;;;;;;;2.00;1.80;;;;;;;22.38;53.28;101516.84;5005016;28;20046;-73
2021/08/03 03:40:39;;;;;;;2.22;1.88;;;;;;;22.34;53.14;101512.09;5005179;28;20042;-73
2021/08/03 03:43:06;;;;;;;2.28;1.75;;;;;;;22.38;53.53;101523.97;5004998;28;20088;-73
2021/08/03 03:45:32;;;;;;;1.90;1.60;;;;;;;22.37;53.18;101514.38;5006577;28;20483;-73
2021/08/03 03:48:02;;;;;;;2.17;1.75;;;;;;;22.35;53.48;101519.03;5003271;28;20037;-73
2021/08/03 03:50:40;;;;;;;1.88;1.70;;;;;;;22.37;53.34;101514.38;5003250;28;20112;-73
2021/08/03 03:53:13;;;;;;;1.92;1.70;;;;;;;22.36;53.50;101510.06;5005869;28;20111;-73
2021/08/03 03:55:47;;;;;;;1.73;1.63;;;;;;;22.40;53.29;101524.63;5018203;28;20036;-73
2021/08/03 03:58:13;;;;;;;1.83;1.73;;;;;;;22.34;53.26;101515.56;5004112;28;20029;-73
2021/08/03 04:00:40;;;;;;;2.30;2.10;;;;;;;22.36;53.39;101521.50;5003692;28;20042;-73
2021/08/03 04:03:08;;;;;;;1.85;1.75;;;;;;;22.37;53.52;101525.00;5005739;28;20482;-73
2021/08/03 04:05:40;;;;;;;2.00;1.80;;;;;;;22.36;53.17;101526.00;5004729;28;20104;-73
2021/08/03 04:08:09;;;;;;;2.15;1.80;;;;;;;22.35;53.41;101519.88;5003577;28;20120;-73
2021/08/03 04:10:36;;;;;;;;;;;;;;;22.35;53.35;101525.19;5003432;28;20090;-73
2021/08/03 04:13:04;;;;;;;1.67;1.58;;;;;;;22.31;53.33;101521.25;5004524;28;20667;-73
2021/08/03 04:15:32;;;;;;;2.38;2.00;;;;;;;22.34;53.33;101517.41;5004888;28;20038;-73
2021/08/03 04:17:58;;;;;;;1.92;1.77;;;;;;;22.34;53.27;101517.41;5002434;28;20045;-73
2021/08/03 04:20:24;;;;;;;1.98;1.70;;;;;;;22.33;53.15;101516.56;5001631;28;20467;-73
2021/08/03 04:22:50;;;;;;;1.98;1.77;;;;;;;22.31;53.52;101519.41;5003667;28;20076;-72
2021/08/03 04:25:15;;;;;;;1.92;1.73;;;;;;;22.31;53.41;101522.06;5004297;28;20034;-73
2021/08/03 04:27:41;;;;;;;1.80;1.55;;;;;;;22.33;53.17;101527.19;5004589;28;20456;-73
2021/08/03 04:30:10;;;;;;;1.67;1.58;;;;;;;22.32;53.57;101528.19;5003703;28;20105;-72
2021/08/03 04:32:36;;;;;;;1.63;1.52;;;;;;;22.31;53.53;101524.72;5005067;28;20049;-72
2021/08/03 04:35:02;;;;;;;2.55;2.00;;;;;;;22.31;53.27;101529.19;5003395;28;20042;-72
2021/08/03 04:37:27;;;;;;;2.30;1.90;;;;;;;22.33;53.13;101523.72;5019978;28;20038;-72
2021/08/03 04:39:53;;;;;;;1.73;1.52;;;;;;;22.30;53.33;101528.38;5006817;28;20040;-72
2021/08/03 04:42:18;;;;;;;2.03;1.65;;;;;;;22.31;53.17;101523.88;5005095;28;20041;-73
2021/08/03 04:44:44;;;;;;;2.55;2.20;;;;;;;22.31;53.13;101523.88;5004931;28;20042;-72
2021/08/03 04:47:10;;;;;;;2.38;1.67;;;;;;;22.31;53.22;101518.59;5006885;28;20439;-72
2021/08/03 04:49:35;;;;;;;2.13;1.90;;;;;;;22.31;53.45;101516.75;5004059;28;20391;-72
2021/08/03 04:52:04;;;;;;;2.10;1.70;;;;;;;22.31;53.45;101514.09;5004176;28;20603;-73
2021/08/03 04:54:30;;;;;;;2.40;1.88;;;;;;;22.28;53.48;101516.28;5004232;28;20070;-72
2021/08/03 04:56:56;;;;;;;2.22;1.70;;;;;;;22.31;53.13;101514.09;5004703;28;20065;-72
2021/08/03 04:59:22;;;;;;;2.15;1.60;;;;;;;22.30;53.14;101512.44;5005902;28;20062;-72
2021/08/03 05:01:48;;;;;;;2.00;1.80;;;;;;;22.29;53.53;101512.63;5003292;28;20429;-72
2021/08/03 05:04:13;;;;;;;1.70;1.60;;;;;;;22.30;53.50;101514.28;5008750;28;20037;-72
2021/08/03 05:06:39;;;;;;;2.00;1.75;;;;;;;22.30;53.19;101512.44;5009672;28;20047;-73
2021/08/03 05:09:04;;;;;;;2.10;1.77;;;;;;;22.29;53.15;101515.28;5008072;28;20034;-72
2021/08/03 05:11:30;;;;;;;1.92;1.70;;;;;;;22.30;53.01;101511.63;5010082;28;20041;-72
2021/08/03 05:13:56;;;;;;;2.22;1.77;;;;;;;22.29;53.48;101509.97;5006068;28;20096;-72
2021/08/03 05:16:21;;;;;;;2.05;1.80;;;;;;;22.28;53.46;101513.63;5009378;28;20042;-72
2021/08/03 05:18:47;;;;;;;2.00;1.77;;;;;;;22.27;53.47;101502.19;5005503;28;20042;-72
2021/08/03 05:21:12;;;;;;;1.90;1.80;;;;;;;22.26;53.55;101503.22;5007776;28;20491;-72
2021/08/03 05:23:38;;;;;;;2.63;1.90;;;;;;;22.27;53.31;101504.03;5009471;28;20041;-72
2021/08/03 05:26:04;;;;;;;3.60;2.10;;;;;;;22.28;53.43;101506.50;5008639;28;20060;-72
2021/08/03 05:28:30;;;;;;;2.25;1.77;;;;;;;22.26;53.39;101508.50;5008777;28;20025;-72
2021/08/03 05:30:55;;;;;;;2.03;1.73;;;;;;;22.27;53.50;101504.84;5007539;28;20049;-72
2021/08/03 05:33:21;;;;;;;2.03;1.70;;;;;;;22.27;53.53;101504.84;5004968;28;20049;-72
2021/08/03 05:35:46;;;;;;;2.00;1.80;;;;;;;22.28;53.59;101509.16;5007872;28;20431;-73
2021/08/03 05:38:12;;;;;;;1.75;1.63;;;;;;;22.28;53.60;101500.38;5022128;28;20197;-72
2021/08/03 05:40:37;;;;;;;2.08;1.75;;;;;;;22.29;53.27;101502.03;5009189;28;20033;-72
2021/08/03 05:43:03;;;;;;;2.20;1.73;;;;;;;22.30;53.49;101501.84;5007529;28;20042;-72
2021/08/03 05:45:28;;;;;;;1.98;1.67;;;;;;;22.28;53.08;101497.72;5002438;28;20034;-72
2021/08/03 05:47:54;;;;;;;1.90;1.70;;;;;;;22.30;53.47;101506.31;5002963;28;20458;-72
2021/08/03 05:50:20;;;;;;;2.97;1.98;;;;;;;22.30;53.51;101498.38;5021611;28;20752;-72
2021/08/03 05:52:46;;;;;;;1.90;1.58;;;;;;;22.27;53.25;101501.38;5007411;28;20092;-72
2021/08/03 05:55:11;;;;;;;1.65;1.50;;;;;;;22.29;53.15;101502.84;5008033;28;20045;-72
2021/08/03 05:57:37;;;;;;;1.60;1.50;;;;;;;22.29;53.38;101507.31;5009732;28;20527;-72
2021/08/03 06:00:04;;;;;;;1.83;1.70;;;;;;;22.31;53.36;101507.97;5006827;28;20061;-72
2021/08/03 06:02:39;;;;;;;2.25;1.90;;;;;;;22.30;53.44;101509.81;5009168;28;20045;-72
2021/08/03 06:05:05;;;;;;;1.67;1.58;;;;;;;22.30;53.25;101512.44;5007456;28;20036;-72
2021/08/03 06:07:38;;;;;;;2.35;1.70;;;;;;;22.31;53.14;101508.78;5008196;28;20044;-72
2021/08/03 06:10:05;;;;;;;2.00;1.80;;;;;;;22.31;53.20;101514.09;5007410;28;20025;-72
2021/08/03 06:12:33;;;;;;;2.58;1.73;;;;;;;22.33;53.44;101518.41;5008109;28;20080;-72
2021/08/03 06:15:02;;;;;;;2.30;2.10;;;;;;;22.34;53.10;101514.75;5006256;28;20492;-72
2021/08/03 06:17:36;;;;;;;2.08;1.80;;;;;;;22.35;53.08;101513.75;5007582;28;20026;-72
2021/08/03 06:20:03;;;;;;;1.92;1.70;;;;;;;22.34;53.01;101506.78;5007777;28;20037;-72
2021/08/03 06:22:29;;;;;;;2.13;1.65;;;;;;;22.34;53.22;101514.75;5007850;28;20144;-72
2021/08/03 06:24:56;;;;;;;2.33;1.92;;;;;;;22.34;53.23;101512.91;5006378;28;20590;-72
2021/08/03 06:27:21;;;;;;;1.73;1.60;;;;;;;22.38;53.18;101516.03;5007418;28;20033;-72
2021/08/03 06:29:48;;;;;;;2.58;1.83;;;;;;;22.36;53.27;101505.59;5006933;28;20042;-73
2021/08/03 06:32:13;;;;;;;2.00;1.88;;;;;;;22.35;53.24;101506.59;5006359;28;20040;-72
2021/08/03 06:34:43;;;;;;;2.20;2.00;;;;;;;22.35;53.36;101509.25;5006191;28;20403;-73
2021/08/03 06:37:10;;;;;;;2.03;1.75;;;;;;;22.37;53.06;101515.19;5007629;28;20053;-72
2021/08/03 06:39:36;;;;;;;2.33;1.80;;;;;;;22.39;53.26;101507.06;5006724;28;20029;-72
2021/08/03 06:42:09;;;;;;;1.88;1.77;;;;;;;22.39;53.15;101507.88;5005763;28;20069;-73
2021/08/03 06:44:44;;;;;;;2.28;1.70;;;;;;;22.39;53.05;101507.88;5003618;28;20049;-72
2021/08/03 06:47:11;;;;;;;2.08;1.80;;;;;;;22.40;53.09;101506.06;5006062;28;20038;-72
2021/08/03 06:49:43;;;;;;;1.63;1.52;;;;;;;22.42;53.21;101506.69;5007337;28;20703;-72
2021/08/03 06:52:10;;;;;;;2.22;1.85;;;;;;;22.44;53.09;101507.34;5007563;28;20336;-72
2021/08/03 06:54:38;;;;;;;2.30;1.95;;;;;;;22.45;53.06;101499.22;5006528;28;20559;-72
2021/08/03 06:57:08;;;;;;;2.30;1.70;;;;;;;22.48;52.87;101509.47;5006852;28;20044;-73
2021/08/03 06:59:39;;;;;;;2.13;1.80;;;;;;;22.52;52.96;101505.44;5006968;28;20096;-72
2021/08/03 07:02:06;;;;;;;2.42;2.00;;;;;;;22.54;52.66;101507.91;5007018;28;20033;-72
2021/08/03 07:05:01;;;;;;;1.73;1.52;;;;;;;22.55;52.75;101510.38;5006396;28;20038;-72
2021/08/03 07:07:27;;;;;;;1.88;1.70;;;;;;;22.57;53.00;101505.72;5006393;28;20078;-72
2021/08/03 07:09:55;;;;;;;2.45;1.88;;;;;;;22.60;53.00;101509.84;5004250;28;20041;-73
2021/08/03 07:12:21;;;;;;;1.70;1.60;;;;;;;22.63;52.91;101511.31;5005446;28;20048;-72
2021/08/03 07:14:48;;;;;;;1.63;1.52;;;;;;;22.63;52.81;101509.50;5006002;28;20758;-72
2021/08/03 07:17:14;;;;;;;1.85;1.67;;;;;;;22.66;52.56;101505.66;5004454;28;20092;-72
2021/08/03 07:19:40;;;;;;;2.15;1.80;;;;;;;22.69;52.60;101511.41;5005551;28;20046;-72
2021/08/03 07:22:11;;;;;;;1.67;1.58;;;;;;;22.71;52.54;101506.75;5006432;28;20038;-71
2021/08/03 07:24:42;;;;;;;2.05;1.70;;;;;;;22.71;52.67;101509.38;5002275;28;20507;-71
2021/08/03 07:27:07;;;;;;;2.00;1.80;;;;;;;22.72;52.80;101503.06;5000901;28;20034;-71
2021/08/03 07:29:33;;;;;;;2.25;1.42;;;;;;;22.75;52.47;101505.34;5006265;28;20045;-71
2021/08/03 07:31:59;;;;;;;1.45;1.35;;;;;;;22.72;52.64;101503.06;5000450;28;20073;-71
2021/08/03 07:34:24;;;;;;;1.35;1.25;;;;;;;22.79;52.70;101503.16;5004291;28;20049;-71
2021/08/03 07:36:50;;;;;;;1.63;1.52;;;;;;;22.78;52.50;101506.81;5006168;28;20550;-71
2021/08/03 07:39:15;;;;;;;2.33;1.80;;;;;;;22.77;52.71;101503.34;5004403;28;20053;-71
2021/08/03 07:41:41;;;;;;;1.35;1.25;;;;;;;22.78;52.71;101504.16;5004121;28;20045;-71
2021/08/03 07:44:07;;;;;;;1.90;1.73;;;;;;;22.80;52.53;101505.66;5001856;28;20034;-71
2021/08/03 07:46:34;;;;;;;2.33;1.70;;;;;;;22.82;52.45;101506.31;5003759;28;20042;-71
2021/08/03 07:49:03;;;;;;;1.98;1.63;;;;;;;22.86;52.73;101506.78;5004936;28;20124;-72
2021/08/03 07:51:30;;;;;;;2.15;1.73;;;;;;;22.81;52.51;101502.00;5000741;28;20465;-71
2021/08/03 07:53:57;;;;;;;1.77;1.67;;;;;;;22.86;52.34;101507.59;5001920;28;20133;-71
2021/08/03 07:56:23;;;;;;;1.50;1.40;;;;;;;22.87;52.33;101500.47;5003125;28;20072;-71
2021/08/03 07:58:49;;;;;;;2.05;1.65;;;;;;;22.94;52.14;101500.53;5004305;28;20507;-71
2021/08/03 08:01:19;;;;;;;1.80;1.50;;;;;;;22.94;52.43;101506.66;5003739;28;20976;-70
2021/08/03 08:03:45;;;;;;;2.22;1.90;;;;;;;22.97;52.16;101495.66;4999946;28;20471;-71
2021/08/03 08:06:11;;;;;;;1.42;1.30;;;;;;;23.02;52.18;101503.94;5002932;28;20034;-71
2021/08/03 08:08:37;;;;;;;1.70;1.42;;;;;;;23.04;52.18;101506.41;5001100;28;20103;-70
2021/08/03 08:11:03;;;;;;;1.83;1.25;;;;;;;23.04;52.44;101498.44;5005434;28;20045;-70
2021/08/03 08:13:28;;;;;;;1.35;1.25;;;;;;;23.07;52.34;101496.22;5002894;28;20041;-71
2021/08/03 08:15:54;;;;;;;2.58;1.60;;;;;;;23.09;52.03;101499.53;5003632;28;20037;-71
2021/08/03 08:18:19;;;;;;;2.10;1.60;;;;;;;23.11;52.29;101496.69;5002373;28;20034;-71
2021/08/03 08:20:45;;;;;;;2.88;1.48;;;;;;;23.12;52.06;101487.69;5002537;28;20405;-70
2021/08/03 08:23:12;;;;;;;1.50;1.40;;;;;;;23.13;51.99;101489.34;5003149;28;20034;-71
2021/08/03 08:25:38;;;;;;;1.70;1.60;;;;;;;23.15;51.95;101493.47;5002536;28;20034;-70
2021/08/03 08:28:05;;;;;;;2.78;1.50;;;;;;;23.18;52.22;101486.97;5002514;28;20034;-71
2021/08/03 08:30:31;;;;;;;1.40;1.30;;;;;;;23.18;51.69;101493.09;5003331;28;20502;-71
2021/08/03 08:32:56;;;;;;;2.10;1.25;;;;;;;23.21;51.91;101489.25;5002089;28;20046;-70
2021/08/03 08:35:22;;;;;;;1.60;1.50;;;;;;;23.20;52.16;101483.13;5002459;28;20049;-71
2021/08/03 08:37:48;;;;;;;1.90;1.77;;;;;;;23.23;51.67;101489.88;5006358;28;20101;-71
2021/08/03 08:40:16;;;;;;;2.47;1.35;;;;;;;23.21;52.08;101474.13;5006779;28;20104;-71
2021/08/03 08:42:45;;;;;;;3.38;1.50;;;;;;;23.20;51.94;101488.44;5008118;28;20048;-71
2021/08/03 08:45:12;;;;;;;1.52;1.38;;;;;;;23.19;52.15;101485.97;5003364;28;20041;-72
2021/08/03 08:47:41;;;;;;;5.45;1.90;;;;;;;23.18;52.07;101494.94;5005336;28;20045;-72
2021/08/03 08:50:07;;;;;;;2.25;1.73;;;;;;;23.17;52.32;101482.66;5005506;28;20417;-71
2021/08/03 08:52:37;;;;;;;1.48;1.38;;;;;;;23.17;52.27;101480.84;5006068;28;20034;-71
2021/08/03 08:55:05;;;;;;;1.98;1.60;;;;;;;23.18;51.91;101486.97;5001150;28;20141;-71
2021/08/03 08:57:30;;;;;;;1.75;1.60;;;;;;;23.16;52.08;101481.00;5001093;28;20105;-71
2021/08/03 08:59:56;;;;;;;1.88;1.58;;;;;;;23.16;52.11;101481.84;5000625;28;21573;-70
2021/08/03 09:02:39;;;;;;;1.67;1.50;;;;;;;23.17;51.94;101490.63;5004255;28;20232;-71
2021/08/03 09:05:07;;;;;;;2.30;1.50;;;;;;;23.13;52.11;101484.03;5001563;28;20048;-72
2021/08/03 09:07:48;;;;;;;1.55;1.45;;;;;;;23.12;52.01;101485.84;5007887;28;20049;-72
2021/08/03 09:10:29;;;;;;;3.05;1.50;;;;;;;23.14;52.25;101491.81;5006046;28;20049;-71
2021/08/03 09:13:04;;;;;;;2.40;1.50;;;;;;;23.12;51.81;101485.84;5005124;28;20048;-72
2021/08/03 09:15:31;;;;;;;1.60;1.50;;;;;;;23.14;52.01;101480.34;5006728;28;20336;-71
2021/08/03 09:18:15;;;;;;;1.80;1.65;;;;;;;23.13;51.99;101476.88;5006071;28;20034;-71
2021/08/03 09:20:43;;;;;;;1.65;1.55;;;;;;;23.13;52.11;101486.69;5006014;28;20591;-71
2021/08/03 09:23:09;;;;;;;2.85;1.85;;;;;;;23.14;52.00;101481.19;5006474;28;20034;-71
2021/08/03 09:25:36;;;;;;;2.25;1.70;;;;;;;23.12;52.34;101469.91;5004262;28;20061;-72
2021/08/03 09:28:04;;;;;;;1.83;1.48;;;;;;;23.16;51.72;101481.00;5005796;28;20502;-71
2021/08/03 09:30:32;;;;;;;1.77;1.67;;;;;;;23.14;51.98;101480.34;5005499;28;20033;-71
2021/08/03 09:32:59;;;;;;;1.88;1.60;;;;;;;23.13;52.07;101478.72;5007210;28;20049;-71
2021/08/03 09:35:25;;;;;;;2.22;1.73;;;;;;;23.13;51.78;101474.22;5005641;28;20046;-72
2021/08/03 09:37:53;;;;;;;2.15;1.70;;;;;;;23.13;52.00;101482.19;5005961;28;20046;-72
2021/08/03 09:40:23;;;;;;;1.60;1.50;;;;;;;23.14;51.95;101481.19;5006370;28;20041;-72
2021/08/03 09:43:09;;;;;;;2.80;1.75;;;;;;;23.16;51.78;101481.84;5020836;28;20037;-72
2021/08/03 09:45:54;;;;;;;1.95;1.75;;;;;;;23.17;51.50;101487.97;5005082;28;20379;-72
2021/08/03 09:48:22;;;;;;;1.85;1.52;;;;;;;23.19;51.70;101484.13;5005668;28;20077;-72
2021/08/03 09:50:58;;;;;;;2.08;1.80;;;;;;;23.17;51.59;101478.19;5005210;28;20037;-72
2021/08/03 09:53:44;;;;;;;1.70;1.50;;;;;;;23.17;51.66;101485.31;5001361;28;20069;-72
2021/08/03 09:56:17;;;;;;;1.70;1.60;;;;;;;23.14;51.90;101472.38;5001240;28;20046;-72
2021/08/03 09:58:48;;;;;;;1.92;1.60;;;;;;;23.17;51.65;101480.84;5002434;28;20072;-71
2021/08/03 10:01:41;;;;;;;2.67;1.80;;;;;;;23.16;52.16;101478.34;5001670;28;20053;-72
2021/08/03 10:04:11;;;;;;;2.15;1.80;;;;;;;23.16;51.87;101478.34;5002680;28;20066;-72
2021/08/03 10:06:38;;;;;;;3.47;1.63;;;;;;;23.17;52.04;101485.31;5001556;28;20048;-70
2021/08/03 10:09:12;;;;;;;1.88;1.70;;;;;;;23.18;51.77;101473.69;5019546;28;20041;-72
2021/08/03 10:11:38;;;;;;;3.17;1.77;;;;;;;23.18;51.72;101476.34;5000586;28;20380;-73
2021/08/03 10:14:05;;;;;;;2.03;1.67;;;;;;;23.19;51.73;101468.19;4999828;28;20041;-71
2021/08/03 10:16:31;;;;;;;2.60;1.75;;;;;;;23.19;51.71;101465.53;5007283;28;20480;-72
2021/08/03 10:18:58;;;;;;;9.38;2.03;;;;;;;23.19;51.78;101465.53;5006811;28;20041;-71
2021/08/03 10:21:35;;;;;;;2.47;1.80;;;;;;;23.20;51.80;101461.84;5008227;28;20562;-74
2021/08/03 10:24:22;;;;;;;2.55;1.63;;;;;;;23.20;51.70;101459.19;5007895;28;20091;-72
2021/08/03 10:27:08;;;;;;;2.40;1.80;;;;;;;23.21;51.79;101458.19;5007482;28;20048;-72
2021/08/03 10:29:39;;;;;;;2.40;1.60;;;;;;;23.20;51.58;101461.84;5002112;28;20034;-72
2021/08/03 10:32:05;;;;;;;3.30;1.75;;;;;;;23.22;51.67;101466.97;4997873;28;20047;-72
2021/08/03 10:34:42;;;;;;;2.22;1.88;;;;;;;23.21;51.72;101466.16;4999606;28;20042;-71
2021/08/03 10:37:09;;;;;;;2.10;1.80;;;;;;;23.23;51.48;101465.16;5004885;28;20545;-72
2021/08/03 10:39:57;;;;;;;3.30;1.73;;;;;;;23.21;51.48;101463.50;5007114;28;20124;-71
2021/08/03 10:42:27;;;;;;;2.35;1.70;;;;;;;23.21;51.77;101470.66;5007035;28;20037;-71
2021/08/03 10:45:00;;;;;;;3.17;1.90;;;;;;;23.20;51.52;101469.84;5000256;28;20042;-71
2021/08/03 10:47:32;;;;;;;3.22;2.10;;;;;;;23.24;51.51;101464.13;4995470;28;20045;-71
2021/08/03 10:50:06;;;;;;;2.00;1.77;;;;;;;23.20;51.31;101469.84;4999727;28;20034;-71
2021/08/03 10:52:53;;;;;;;1.92;1.70;;;;;;;23.20;51.46;101464.50;5001482;28;20034;-72
2021/08/03 10:55:44;;;;;;;3.15;2.13;;;;;;;23.20;51.57;101461.84;4999930;28;20122;-71
2021/08/03 10:58:09;;;;;;;2.20;2.00;;;;;;;23.18;51.20;101461.22;5000492;28;20030;-72
2021/08/03 11:01:02;;;;;;;2.28;1.90;;;;;;;23.19;51.41;101459.41;5002976;28;20586;-71
2021/08/03 11:03:34;;;;;;;2.30;2.00;;;;;;;23.19;51.64;101462.88;4993377;28;20057;-72
2021/08/03 11:06:00;;;;;;;3.55;1.95;;;;;;;23.21;51.54;101462.69;5002290;28;20050;-71
2021/08/03 11:08:29;;;;;;;2.67;1.88;;;;;;;23.18;51.86;101461.22;5001312;28;20104;-71
2021/08/03 11:10:57;;;;;;;2.22;1.80;;;;;;;23.18;51.74;101463.88;5003125;28;20034;-69
2021/08/03 11:13:38;;;;;;;2.85;1.92;;;;;;;23.19;51.69;101456.75;5006593;28;20057;-72
2021/08/03 11:16:04;;;;;;;2.53;2.03;;;;;;;23.19;51.99;101462.06;5004079;28;20026;-71
2021/08/03 11:18:41;;;;;;;2.85;1.85;;;;;;;23.20;51.56;101459.19;5002516;28;20034;-72
2021/08/03 11:21:09;;;;;;;2.80;2.00;;;;;;;23.21;51.63;101455.53;5003087;28;20046;-71
2021/08/03 11:24:15;;;;;;;3.15;1.80;;;;;;;23.21;51.90;101454.72;5010004;28;20041;-71
2021/08/03 11:26:55;;;;;;;2.88;2.00;;;;;;;23.20;51.61;101461.84;5007407;28;20488;-71
2021/08/03 11:29:31;;;;;;;3.22;2.00;;;;;;;23.20;51.70;101455.72;5006585;28;20061;-72
2021/08/03 11:31:58;;;;;;;2.92;2.10;;;;;;;23.18;51.80;101455.09;5003870;28;20103;-71
2021/08/03 11:34:39;;;;;;;3.67;2.40;;;;;;;23.18;51.60;101455.09;5004254;28;20034;-71
2021/08/03 11:37:09;;;;;;;3.42;2.10;;;;;;;23.19;51.68;101457.56;5007651;28;20380;-71
2021/08/03 11:39:48;;;;;;;2.08;1.85;;;;;;;23.19;51.63;101454.91;5007966;28;20550;-71